sensor_id;sensor_type;location;lat;lon;timestamp;temperature;humidity
66328;DHT22;53133;52.862;6.602;2022-12-24T00:01:17;8.60;99.90
66328;DHT22;53133;52.862;6.602;2022-12-24T00:03:43;8.60;99.90
66328;DHT22;53133;52.862;6.602;2022-12-24T00:06:16;8.60;99.90
66328;DHT22;53133;52.862;6.602;2022-12-24T00:08:43;8.60;99.90
66328;DHT22;53133;52.862;6.602;2022-12-24T00:11:08;8.70;99.90
66328;DHT22;53133;52.862;6.602;2022-12-24T00:13:34;8.70;99.90
66328;DHT22;53133;52.862;6.602;2022-12-24T00:16:00;8.80;99.90
66328;DHT22;53133;52.862;6.602;2022-12-24T00:18:26;8.70;99.90
66328;DHT22;53133;52.862;6.602;2022-12-24T00:20:53;8.80;99.90
66328;DHT22;53133;52.862;6.602;2022-12-24T00:23:19;8.80;99.90
66328;DHT22;53133;52.862;6.602;2022-12-24T00:25:45;8.80;99.90
66328;DHT22;53133;52.862;6.602;2022-12-24T00:28:12;8.90;99.90
66328;DHT22;53133;52.862;6.602;2022-12-24T00:30:39;8.90;99.90
66328;DHT22;53133;52.862;6.602;2022-12-24T00:33:05;8.90;99.90
66328;DHT22;53133;52.862;6.602;2022-12-24T00:35:33;8.90;99.90
66328;DHT22;53133;52.862;6.602;2022-12-24T00:37:59;8.90;99.90
66328;DHT22;53133;52.862;6.602;2022-12-24T00:40:24;8.90;99.90
66328;DHT22;53133;52.862;6.602;2022-12-24T00:42:50;8.90;99.90
66328;DHT22;53133;52.862;6.602;2022-12-24T00:45:16;9.00;99.90
66328;DHT22;53133;52.862;6.602;2022-12-24T00:47:41;9.00;99.90
66328;DHT22;53133;52.862;6.602;2022-12-24T00:50:10;9.00;99.90
66328;DHT22;53133;52.862;6.602;2022-12-24T00:52:35;9.00;99.90
66328;DHT22;53133;52.862;6.602;2022-12-24T00:55:01;9.00;99.90
66328;DHT22;53133;52.862;6.602;2022-12-24T00:57:26;9.00;99.90
66328;DHT22;53133;52.862;6.602;2022-12-24T00:59:52;9.00;99.90
66328;DHT22;53133;52.862;6.602;2022-12-24T01:02:17;9.00;99.90
66328;DHT22;53133;52.862;6.602;2022-12-24T01:04:43;9.00;99.90
66328;DHT22;53133;52.862;6.602;2022-12-24T01:07:27;9.00;99.90
66328;DHT22;53133;52.862;6.602;2022-12-24T01:09:53;9.10;99.90
66328;DHT22;53133;52.862;6.602;2022-12-24T01:12:19;9.10;99.90
66328;DHT22;53133;52.862;6.602;2022-12-24T01:14:44;9.10;99.90
66328;DHT22;53133;52.862;6.602;2022-12-24T01:17:10;9.10;99.90
66328;DHT22;53133;52.862;6.602;2022-12-24T01:19:35;9.10;99.90
66328;DHT22;53133;52.862;6.602;2022-12-24T01:22:01;9.10;99.90
66328;DHT22;53133;52.862;6.602;2022-12-24T01:24:27;9.10;99.90
66328;DHT22;53133;52.862;6.602;2022-12-24T01:26:52;9.10;99.90
66328;DHT22;53133;52.862;6.602;2022-12-24T01:29:18;9.10;99.90
66328;DHT22;53133;52.862;6.602;2022-12-24T01:31:44;9.10;99.90
66328;DHT22;53133;52.862;6.602;2022-12-24T01:34:09;9.10;99.90
66328;DHT22;53133;52.862;6.602;2022-12-24T01:36:35;9.10;99.90
66328;DHT22;53133;52.862;6.602;2022-12-24T01:39:02;9.10;99.90
66328;DHT22;53133;52.862;6.602;2022-12-24T01:41:29;9.10;99.90
66328;DHT22;53133;52.862;6.602;2022-12-24T01:46:41;9.10;99.90
66328;DHT22;53133;52.862;6.602;2022-12-24T01:49:09;9.20;99.90
66328;DHT22;53133;52.862;6.602;2022-12-24T01:51:40;9.20;99.90
66328;DHT22;53133;52.862;6.602;2022-12-24T01:56:43;9.20;99.90
66328;DHT22;53133;52.862;6.602;2022-12-24T01:59:12;9.20;99.90
66328;DHT22;53133;52.862;6.602;2022-12-24T02:01:39;9.20;99.90
66328;DHT22;53133;52.862;6.602;2022-12-24T02:04:39;9.20;99.90
66328;DHT22;53133;52.862;6.602;2022-12-24T02:07:07;9.20;99.90
66328;DHT22;53133;52.862;6.602;2022-12-24T02:09:33;9.20;99.90
66328;DHT22;53133;52.862;6.602;2022-12-24T02:12:00;9.20;99.90
66328;DHT22;53133;52.862;6.602;2022-12-24T02:14:27;9.20;99.90
66328;DHT22;53133;52.862;6.602;2022-12-24T02:27:44;9.20;99.90
66328;DHT22;53133;52.862;6.602;2022-12-24T02:35:27;9.30;99.90
66328;DHT22;53133;52.862;6.602;2022-12-24T02:38:03;9.30;99.90
66328;DHT22;53133;52.862;6.602;2022-12-24T02:40:37;9.30;99.90
66328;DHT22;53133;52.862;6.602;2022-12-24T02:43:09;9.30;99.90
66328;DHT22;53133;52.862;6.602;2022-12-24T02:45:39;9.30;99.90
66328;DHT22;53133;52.862;6.602;2022-12-24T02:48:05;9.30;99.90
66328;DHT22;53133;52.862;6.602;2022-12-24T02:50:31;9.30;99.90
66328;DHT22;53133;52.862;6.602;2022-12-24T02:52:56;9.40;99.90
66328;DHT22;53133;52.862;6.602;2022-12-24T02:55:38;9.30;99.90
66328;DHT22;53133;52.862;6.602;2022-12-24T03:01:25;9.30;99.90
66328;DHT22;53133;52.862;6.602;2022-12-24T03:10:19;9.30;99.90
66328;DHT22;53133;52.862;6.602;2022-12-24T03:12:49;9.30;99.90
66328;DHT22;53133;52.862;6.602;2022-12-24T03:15:18;9.30;99.90
66328;DHT22;53133;52.862;6.602;2022-12-24T03:17:46;9.20;99.90
66328;DHT22;53133;52.862;6.602;2022-12-24T03:20:20;9.20;99.90
66328;DHT22;53133;52.862;6.602;2022-12-24T03:22:46;9.20;99.90
66328;DHT22;53133;52.862;6.602;2022-12-24T03:25:12;9.20;99.90
66328;DHT22;53133;52.862;6.602;2022-12-24T03:27:38;9.10;99.90
66328;DHT22;53133;52.862;6.602;2022-12-24T03:30:09;9.10;99.90
66328;DHT22;53133;52.862;6.602;2022-12-24T03:32:37;9.10;99.90
66328;DHT22;53133;52.862;6.602;2022-12-24T03:35:03;9.10;99.90
66328;DHT22;53133;52.862;6.602;2022-12-24T03:37:28;9.10;99.90
66328;DHT22;53133;52.862;6.602;2022-12-24T03:39:54;9.10;99.90
66328;DHT22;53133;52.862;6.602;2022-12-24T03:42:20;9.10;99.90
66328;DHT22;53133;52.862;6.602;2022-12-24T03:44:45;9.10;99.90
66328;DHT22;53133;52.862;6.602;2022-12-24T03:47:11;9.10;99.90
66328;DHT22;53133;52.862;6.602;2022-12-24T03:49:36;9.10;99.90
66328;DHT22;53133;52.862;6.602;2022-12-24T03:52:02;9.20;99.90
66328;DHT22;53133;52.862;6.602;2022-12-24T03:54:28;9.20;99.90
66328;DHT22;53133;52.862;6.602;2022-12-24T03:56:53;9.20;99.90
66328;DHT22;53133;52.862;6.602;2022-12-24T03:59:19;9.20;99.90
66328;DHT22;53133;52.862;6.602;2022-12-24T04:01:44;9.20;99.90
66328;DHT22;53133;52.862;6.602;2022-12-24T04:04:10;9.20;99.90
66328;DHT22;53133;52.862;6.602;2022-12-24T04:06:35;9.20;99.90
66328;DHT22;53133;52.862;6.602;2022-12-24T04:09:01;9.20;99.90
66328;DHT22;53133;52.862;6.602;2022-12-24T04:11:30;9.30;99.90
66328;DHT22;53133;52.862;6.602;2022-12-24T04:13:56;9.30;99.90
66328;DHT22;53133;52.862;6.602;2022-12-24T04:16:22;9.20;99.90
66328;DHT22;53133;52.862;6.602;2022-12-24T04:18:47;9.20;99.90
66328;DHT22;53133;52.862;6.602;2022-12-24T04:21:13;9.20;99.90
66328;DHT22;53133;52.862;6.602;2022-12-24T04:23:40;9.20;99.90
66328;DHT22;53133;52.862;6.602;2022-12-24T04:26:07;9.20;99.90
66328;DHT22;53133;52.862;6.602;2022-12-24T04:28:34;9.20;99.90
66328;DHT22;53133;52.862;6.602;2022-12-24T04:31:01;9.20;99.90
66328;DHT22;53133;52.862;6.602;2022-12-24T04:33:27;9.20;99.90
66328;DHT22;53133;52.862;6.602;2022-12-24T04:35:53;9.20;99.90
66328;DHT22;53133;52.862;6.602;2022-12-24T04:38:19;9.10;99.90
66328;DHT22;53133;52.862;6.602;2022-12-24T04:40:44;9.10;99.90
66328;DHT22;53133;52.862;6.602;2022-12-24T04:43:10;9.10;99.90
66328;DHT22;53133;52.862;6.602;2022-12-24T04:45:35;9.00;99.90
66328;DHT22;53133;52.862;6.602;2022-12-24T04:48:01;9.00;99.90
66328;DHT22;53133;52.862;6.602;2022-12-24T04:50:27;9.00;99.90
66328;DHT22;53133;52.862;6.602;2022-12-24T04:52:52;9.00;99.90
66328;DHT22;53133;52.862;6.602;2022-12-24T04:55:18;9.00;99.90
66328;DHT22;53133;52.862;6.602;2022-12-24T04:57:44;9.00;99.90
66328;DHT22;53133;52.862;6.602;2022-12-24T05:00:09;9.00;99.90
66328;DHT22;53133;52.862;6.602;2022-12-24T05:02:35;9.00;99.90
66328;DHT22;53133;52.862;6.602;2022-12-24T05:05:01;9.00;99.90
66328;DHT22;53133;52.862;6.602;2022-12-24T05:07:30;9.00;99.90
66328;DHT22;53133;52.862;6.602;2022-12-24T05:09:56;9.00;99.90
66328;DHT22;53133;52.862;6.602;2022-12-24T05:12:21;9.00;99.90
66328;DHT22;53133;52.862;6.602;2022-12-24T05:14:47;9.10;99.90
66328;DHT22;53133;52.862;6.602;2022-12-24T05:17:13;9.10;99.90
66328;DHT22;53133;52.862;6.602;2022-12-24T05:19:38;9.00;99.90
66328;DHT22;53133;52.862;6.602;2022-12-24T05:22:04;9.10;99.90
66328;DHT22;53133;52.862;6.602;2022-12-24T05:24:48;9.10;99.90
66328;DHT22;53133;52.862;6.602;2022-12-24T05:27:49;9.10;99.90
66328;DHT22;53133;52.862;6.602;2022-12-24T05:30:15;9.10;99.90
66328;DHT22;53133;52.862;6.602;2022-12-24T05:32:40;9.10;99.90
66328;DHT22;53133;52.862;6.602;2022-12-24T05:35:06;9.10;99.90
66328;DHT22;53133;52.862;6.602;2022-12-24T05:37:32;9.10;99.90
66328;DHT22;53133;52.862;6.602;2022-12-24T05:39:57;9.20;99.90
66328;DHT22;53133;52.862;6.602;2022-12-24T05:42:23;9.20;99.90
66328;DHT22;53133;52.862;6.602;2022-12-24T05:44:48;9.20;99.90
66328;DHT22;53133;52.862;6.602;2022-12-24T05:47:14;9.20;99.90
66328;DHT22;53133;52.862;6.602;2022-12-24T05:49:39;9.20;99.90
66328;DHT22;53133;52.862;6.602;2022-12-24T05:52:05;9.20;99.90
66328;DHT22;53133;52.862;6.602;2022-12-24T05:54:30;9.20;99.90
66328;DHT22;53133;52.862;6.602;2022-12-24T05:56:56;9.30;99.90
66328;DHT22;53133;52.862;6.602;2022-12-24T05:59:21;9.30;99.90
66328;DHT22;53133;52.862;6.602;2022-12-24T06:01:47;9.30;99.90
66328;DHT22;53133;52.862;6.602;2022-12-24T06:04:16;9.30;99.90
66328;DHT22;53133;52.862;6.602;2022-12-24T06:06:41;9.30;99.90
66328;DHT22;53133;52.862;6.602;2022-12-24T06:09:07;9.40;99.90
66328;DHT22;53133;52.862;6.602;2022-12-24T06:11:32;9.40;99.90
66328;DHT22;53133;52.862;6.602;2022-12-24T06:13:58;9.40;99.90
66328;DHT22;53133;52.862;6.602;2022-12-24T06:16:24;9.40;99.90
66328;DHT22;53133;52.862;6.602;2022-12-24T06:18:50;9.40;99.90
66328;DHT22;53133;52.862;6.602;2022-12-24T06:21:16;9.40;99.90
66328;DHT22;53133;52.862;6.602;2022-12-24T06:23:43;9.40;99.90
66328;DHT22;53133;52.862;6.602;2022-12-24T06:26:13;9.40;99.90
66328;DHT22;53133;52.862;6.602;2022-12-24T06:28:39;9.40;99.90
66328;DHT22;53133;52.862;6.602;2022-12-24T06:31:11;9.40;99.90
66328;DHT22;53133;52.862;6.602;2022-12-24T06:33:37;9.40;99.90
66328;DHT22;53133;52.862;6.602;2022-12-24T06:36:17;9.50;99.90
66328;DHT22;53133;52.862;6.602;2022-12-24T06:38:44;9.50;99.90
66328;DHT22;53133;52.862;6.602;2022-12-24T06:41:10;9.50;99.90
66328;DHT22;53133;52.862;6.602;2022-12-24T06:43:35;9.50;99.90
66328;DHT22;53133;52.862;6.602;2022-12-24T06:46:02;9.50;99.90
66328;DHT22;53133;52.862;6.602;2022-12-24T06:48:28;9.50;99.90
66328;DHT22;53133;52.862;6.602;2022-12-24T06:50:53;9.50;99.90
66328;DHT22;53133;52.862;6.602;2022-12-24T06:53:19;9.60;99.90
66328;DHT22;53133;52.862;6.602;2022-12-24T06:55:44;9.50;99.90
66328;DHT22;53133;52.862;6.602;2022-12-24T06:58:10;9.60;99.90
66328;DHT22;53133;52.862;6.602;2022-12-24T07:00:36;9.50;99.90
66328;DHT22;53133;52.862;6.602;2022-12-24T07:03:02;9.50;99.90
66328;DHT22;53133;52.862;6.602;2022-12-24T07:05:28;9.50;99.90
66328;DHT22;53133;52.862;6.602;2022-12-24T07:07:54;9.50;99.90
66328;DHT22;53133;52.862;6.602;2022-12-24T07:10:20;9.50;99.90
66328;DHT22;53133;52.862;6.602;2022-12-24T07:12:46;9.50;99.90
66328;DHT22;53133;52.862;6.602;2022-12-24T07:15:12;9.50;99.90
66328;DHT22;53133;52.862;6.602;2022-12-24T07:17:38;9.50;99.90
66328;DHT22;53133;52.862;6.602;2022-12-24T07:20:05;9.60;99.90
66328;DHT22;53133;52.862;6.602;2022-12-24T07:22:31;9.60;99.90
66328;DHT22;53133;52.862;6.602;2022-12-24T07:24:57;9.60;99.90
66328;DHT22;53133;52.862;6.602;2022-12-24T07:27:23;9.60;99.90
66328;DHT22;53133;52.862;6.602;2022-12-24T07:29:48;9.60;99.90
66328;DHT22;53133;52.862;6.602;2022-12-24T07:32:14;9.60;99.90
66328;DHT22;53133;52.862;6.602;2022-12-24T07:34:39;9.60;99.90
66328;DHT22;53133;52.862;6.602;2022-12-24T07:37:06;9.60;99.90
66328;DHT22;53133;52.862;6.602;2022-12-24T07:39:32;9.60;99.90
66328;DHT22;53133;52.862;6.602;2022-12-24T07:41:57;9.60;99.90
66328;DHT22;53133;52.862;6.602;2022-12-24T07:44:23;9.60;99.90
66328;DHT22;53133;52.862;6.602;2022-12-24T07:46:49;9.60;99.90
66328;DHT22;53133;52.862;6.602;2022-12-24T07:49:15;9.60;99.90
66328;DHT22;53133;52.862;6.602;2022-12-24T07:51:41;9.60;99.90
66328;DHT22;53133;52.862;6.602;2022-12-24T07:54:06;9.70;99.90
66328;DHT22;53133;52.862;6.602;2022-12-24T07:56:32;9.70;99.90
66328;DHT22;53133;52.862;6.602;2022-12-24T07:58:57;9.70;99.90
66328;DHT22;53133;52.862;6.602;2022-12-24T08:01:23;9.70;99.90
66328;DHT22;53133;52.862;6.602;2022-12-24T08:03:49;9.70;99.90
66328;DHT22;53133;52.862;6.602;2022-12-24T08:06:19;9.70;99.90
66328;DHT22;53133;52.862;6.602;2022-12-24T08:08:44;9.70;99.90
66328;DHT22;53133;52.862;6.602;2022-12-24T08:11:11;9.70;99.90
66328;DHT22;53133;52.862;6.602;2022-12-24T08:13:36;9.70;99.90
66328;DHT22;53133;52.862;6.602;2022-12-24T08:16:02;9.70;99.90
66328;DHT22;53133;52.862;6.602;2022-12-24T08:18:27;9.70;99.90
66328;DHT22;53133;52.862;6.602;2022-12-24T08:20:53;9.70;99.90
66328;DHT22;53133;52.862;6.602;2022-12-24T08:23:19;9.70;99.90
66328;DHT22;53133;52.862;6.602;2022-12-24T08:25:46;9.70;99.90
66328;DHT22;53133;52.862;6.602;2022-12-24T08:28:17;9.70;99.90
66328;DHT22;53133;52.862;6.602;2022-12-24T08:30:43;9.70;99.90
66328;DHT22;53133;52.862;6.602;2022-12-24T08:33:09;9.70;99.90
66328;DHT22;53133;52.862;6.602;2022-12-24T08:35:35;9.70;99.90
66328;DHT22;53133;52.862;6.602;2022-12-24T08:38:01;9.70;99.90
66328;DHT22;53133;52.862;6.602;2022-12-24T08:40:26;9.80;99.90
66328;DHT22;53133;52.862;6.602;2022-12-24T08:42:52;9.70;99.90
66328;DHT22;53133;52.862;6.602;2022-12-24T08:45:18;9.80;99.90
66328;DHT22;53133;52.862;6.602;2022-12-24T08:47:44;9.80;99.90
66328;DHT22;53133;52.862;6.602;2022-12-24T08:50:10;9.80;99.90
66328;DHT22;53133;52.862;6.602;2022-12-24T08:52:36;9.80;99.90
66328;DHT22;53133;52.862;6.602;2022-12-24T08:55:02;9.80;99.90
66328;DHT22;53133;52.862;6.602;2022-12-24T08:57:28;9.80;99.90
66328;DHT22;53133;52.862;6.602;2022-12-24T08:59:54;9.80;99.90
66328;DHT22;53133;52.862;6.602;2022-12-24T09:02:20;9.80;99.90
66328;DHT22;53133;52.862;6.602;2022-12-24T09:04:45;9.80;99.90
66328;DHT22;53133;52.862;6.602;2022-12-24T09:07:11;9.90;99.90
66328;DHT22;53133;52.862;6.602;2022-12-24T09:09:37;9.90;99.90
66328;DHT22;53133;52.862;6.602;2022-12-24T09:12:04;9.90;99.90
66328;DHT22;53133;52.862;6.602;2022-12-24T09:14:30;9.90;99.90
66328;DHT22;53133;52.862;6.602;2022-12-24T09:16:55;9.90;99.90
66328;DHT22;53133;52.862;6.602;2022-12-24T09:19:21;9.90;99.90
66328;DHT22;53133;52.862;6.602;2022-12-24T09:21:47;9.90;99.90
66328;DHT22;53133;52.862;6.602;2022-12-24T09:24:12;10.00;99.90
66328;DHT22;53133;52.862;6.602;2022-12-24T09:26:39;10.00;99.90
66328;DHT22;53133;52.862;6.602;2022-12-24T09:29:05;10.00;99.90
66328;DHT22;53133;52.862;6.602;2022-12-24T09:31:31;10.00;99.90
66328;DHT22;53133;52.862;6.602;2022-12-24T09:33:56;10.00;99.90
66328;DHT22;53133;52.862;6.602;2022-12-24T09:36:22;10.00;99.90
66328;DHT22;53133;52.862;6.602;2022-12-24T09:38:47;10.00;99.90
66328;DHT22;53133;52.862;6.602;2022-12-24T09:44:02;10.10;99.90
66328;DHT22;53133;52.862;6.602;2022-12-24T09:46:33;10.10;99.90
66328;DHT22;53133;52.862;6.602;2022-12-24T09:49:11;10.10;99.90
66328;DHT22;53133;52.862;6.602;2022-12-24T09:51:42;10.10;99.90
66328;DHT22;53133;52.862;6.602;2022-12-24T09:54:29;10.00;99.90
66328;DHT22;53133;52.862;6.602;2022-12-24T09:56:57;10.00;99.90
66328;DHT22;53133;52.862;6.602;2022-12-24T09:59:34;10.00;99.90
66328;DHT22;53133;52.862;6.602;2022-12-24T10:02:09;9.90;99.90
66328;DHT22;53133;52.862;6.602;2022-12-24T10:04:35;9.90;99.90
66328;DHT22;53133;52.862;6.602;2022-12-24T10:10:12;9.90;99.90
66328;DHT22;53133;52.862;6.602;2022-12-24T10:15:35;10.00;99.90
66328;DHT22;53133;52.862;6.602;2022-12-24T10:21:38;10.00;99.90
66328;DHT22;53133;52.862;6.602;2022-12-24T10:23:58;10.10;99.90
66328;DHT22;53133;52.862;6.602;2022-12-24T10:26:43;10.10;99.90
66328;DHT22;53133;52.862;6.602;2022-12-24T10:29:29;10.10;99.90
66328;DHT22;53133;52.862;6.602;2022-12-24T10:34:31;10.10;99.90
66328;DHT22;53133;52.862;6.602;2022-12-24T10:36:58;10.20;99.90
66328;DHT22;53133;52.862;6.602;2022-12-24T10:39:25;10.20;99.90
66328;DHT22;53133;52.862;6.602;2022-12-24T10:41:53;10.20;99.90
66328;DHT22;53133;52.862;6.602;2022-12-24T10:44:25;10.10;99.90
66328;DHT22;53133;52.862;6.602;2022-12-24T10:46:52;10.20;99.90
66328;DHT22;53133;52.862;6.602;2022-12-24T10:49:32;10.20;99.90
66328;DHT22;53133;52.862;6.602;2022-12-24T10:52:05;10.20;99.90
66328;DHT22;53133;52.862;6.602;2022-12-24T10:54:35;10.20;99.90
66328;DHT22;53133;52.862;6.602;2022-12-24T10:57:04;10.20;99.90
66328;DHT22;53133;52.862;6.602;2022-12-24T11:02:00;10.20;99.90
66328;DHT22;53133;52.862;6.602;2022-12-24T11:04:28;10.20;99.90
66328;DHT22;53133;52.862;6.602;2022-12-24T11:06:59;10.30;99.90
66328;DHT22;53133;52.862;6.602;2022-12-24T11:09:30;10.30;99.90
66328;DHT22;53133;52.862;6.602;2022-12-24T11:11:58;10.30;99.90
66328;DHT22;53133;52.862;6.602;2022-12-24T11:14:26;10.30;99.90
66328;DHT22;53133;52.862;6.602;2022-12-24T11:16:54;10.30;99.90
66328;DHT22;53133;52.862;6.602;2022-12-24T11:19:32;10.30;99.90
66328;DHT22;53133;52.862;6.602;2022-12-24T11:22:46;10.30;99.90
66328;DHT22;53133;52.862;6.602;2022-12-24T11:25:16;10.30;99.90
66328;DHT22;53133;52.862;6.602;2022-12-24T11:27:47;10.20;99.90
66328;DHT22;53133;52.862;6.602;2022-12-24T11:32:45;10.30;99.90
66328;DHT22;53133;52.862;6.602;2022-12-24T11:35:20;10.20;99.90
66328;DHT22;53133;52.862;6.602;2022-12-24T11:37:48;10.30;99.90
66328;DHT22;53133;52.862;6.602;2022-12-24T11:40:21;10.30;99.90
66328;DHT22;53133;52.862;6.602;2022-12-24T11:42:49;10.30;99.90
66328;DHT22;53133;52.862;6.602;2022-12-24T11:45:23;10.30;99.90
66328;DHT22;53133;52.862;6.602;2022-12-24T11:47:50;10.40;99.90
66328;DHT22;53133;52.862;6.602;2022-12-24T11:50:35;10.40;99.90
66328;DHT22;53133;52.862;6.602;2022-12-24T11:55:44;10.30;99.90
66328;DHT22;53133;52.862;6.602;2022-12-24T12:01:01;10.40;99.90
66328;DHT22;53133;52.862;6.602;2022-12-24T12:03:34;10.40;99.90
66328;DHT22;53133;52.862;6.602;2022-12-24T12:06:08;10.40;99.90
66328;DHT22;53133;52.862;6.602;2022-12-24T12:08:38;10.40;99.90
66328;DHT22;53133;52.862;6.602;2022-12-24T12:11:11;10.40;99.90
66328;DHT22;53133;52.862;6.602;2022-12-24T12:13:39;10.40;99.90
66328;DHT22;53133;52.862;6.602;2022-12-24T12:16:24;10.40;99.90
66328;DHT22;53133;52.862;6.602;2022-12-24T12:18:56;10.40;99.90
66328;DHT22;53133;52.862;6.602;2022-12-24T12:21:34;10.40;99.90
66328;DHT22;53133;52.862;6.602;2022-12-24T12:24:13;10.40;99.90
66328;DHT22;53133;52.862;6.602;2022-12-24T12:26:42;10.40;99.90
66328;DHT22;53133;52.862;6.602;2022-12-24T12:29:27;10.40;99.90
66328;DHT22;53133;52.862;6.602;2022-12-24T12:32:07;10.40;99.90
66328;DHT22;53133;52.862;6.602;2022-12-24T12:34:42;10.40;99.90
66328;DHT22;53133;52.862;6.602;2022-12-24T12:37:17;10.40;99.90
66328;DHT22;53133;52.862;6.602;2022-12-24T12:39:45;10.50;99.90
66328;DHT22;53133;52.862;6.602;2022-12-24T12:42:39;10.50;99.90
66328;DHT22;53133;52.862;6.602;2022-12-24T12:45:28;10.50;99.90
66328;DHT22;53133;52.862;6.602;2022-12-24T12:50:43;10.50;99.90
66328;DHT22;53133;52.862;6.602;2022-12-24T12:56:13;10.50;99.90
66328;DHT22;53133;52.862;6.602;2022-12-24T12:59:08;10.40;99.90
66328;DHT22;53133;52.862;6.602;2022-12-24T13:01:44;10.50;99.90
66328;DHT22;53133;52.862;6.602;2022-12-24T13:13:08;10.50;99.90
66328;DHT22;53133;52.862;6.602;2022-12-24T13:18:36;10.50;99.90
66328;DHT22;53133;52.862;6.602;2022-12-24T13:21:15;10.50;99.90
66328;DHT22;53133;52.862;6.602;2022-12-24T13:23:41;10.50;99.90
66328;DHT22;53133;52.862;6.602;2022-12-24T13:26:12;10.40;99.90
66328;DHT22;53133;52.862;6.602;2022-12-24T13:28:38;10.40;99.90
66328;DHT22;53133;52.862;6.602;2022-12-24T13:36:12;10.30;99.90
66328;DHT22;53133;52.862;6.602;2022-12-24T13:38:40;10.30;99.90
66328;DHT22;53133;52.862;6.602;2022-12-24T13:44:02;10.30;99.90
66328;DHT22;53133;52.862;6.602;2022-12-24T13:49:37;10.30;99.90
66328;DHT22;53133;52.862;6.602;2022-12-24T13:54:48;10.20;99.90
66328;DHT22;53133;52.862;6.602;2022-12-24T14:08:07;10.10;99.90
66328;DHT22;53133;52.862;6.602;2022-12-24T14:10:39;10.10;99.90
66328;DHT22;53133;52.862;6.602;2022-12-24T14:13:05;10.20;99.90
66328;DHT22;53133;52.862;6.602;2022-12-24T14:18:22;10.10;99.90
66328;DHT22;53133;52.862;6.602;2022-12-24T14:20:53;10.10;99.90
66328;DHT22;53133;52.862;6.602;2022-12-24T14:25:56;10.10;99.90
66328;DHT22;53133;52.862;6.602;2022-12-24T14:28:27;10.20;99.90
66328;DHT22;53133;52.862;6.602;2022-12-24T14:31:01;10.20;99.90
66328;DHT22;53133;52.862;6.602;2022-12-24T14:33:34;10.10;99.90
66328;DHT22;53133;52.862;6.602;2022-12-24T14:36:01;10.20;99.90
66328;DHT22;53133;52.862;6.602;2022-12-24T14:38:27;10.20;99.90
66328;DHT22;53133;52.862;6.602;2022-12-24T14:41:18;10.20;99.90
66328;DHT22;53133;52.862;6.602;2022-12-24T14:46:42;10.20;99.90
66328;DHT22;53133;52.862;6.602;2022-12-24T14:49:16;10.20;99.90
66328;DHT22;53133;52.862;6.602;2022-12-24T14:51:58;10.20;99.90
66328;DHT22;53133;52.862;6.602;2022-12-24T14:59:51;10.20;99.90
66328;DHT22;53133;52.862;6.602;2022-12-24T15:05:13;10.10;99.90
66328;DHT22;53133;52.862;6.602;2022-12-24T15:10:39;10.10;99.90
66328;DHT22;53133;52.862;6.602;2022-12-24T15:13:22;10.10;99.90
66328;DHT22;53133;52.862;6.602;2022-12-24T15:15:49;10.10;99.90
66328;DHT22;53133;52.862;6.602;2022-12-24T15:18:18;10.10;99.90
66328;DHT22;53133;52.862;6.602;2022-12-24T15:20:47;10.00;99.90
66328;DHT22;53133;52.862;6.602;2022-12-24T15:23:26;10.00;99.90
66328;DHT22;53133;52.862;6.602;2022-12-24T15:26:19;10.00;99.90
66328;DHT22;53133;52.862;6.602;2022-12-24T15:28:45;10.00;99.90
66328;DHT22;53133;52.862;6.602;2022-12-24T15:31:16;10.00;99.90
66328;DHT22;53133;52.862;6.602;2022-12-24T15:33:48;10.00;99.90
66328;DHT22;53133;52.862;6.602;2022-12-24T15:36:16;10.00;99.90
66328;DHT22;53133;52.862;6.602;2022-12-24T15:38:51;10.00;99.90
66328;DHT22;53133;52.862;6.602;2022-12-24T15:41:23;10.00;99.90
66328;DHT22;53133;52.862;6.602;2022-12-24T15:43:51;10.00;99.90
66328;DHT22;53133;52.862;6.602;2022-12-24T15:46:22;10.00;99.90
66328;DHT22;53133;52.862;6.602;2022-12-24T15:48:50;10.00;99.90
66328;DHT22;53133;52.862;6.602;2022-12-24T15:53:47;9.90;99.90
66328;DHT22;53133;52.862;6.602;2022-12-24T15:56:33;9.90;99.90
66328;DHT22;53133;52.862;6.602;2022-12-24T16:01:49;9.80;99.90
66328;DHT22;53133;52.862;6.602;2022-12-24T16:04:26;9.80;99.90
66328;DHT22;53133;52.862;6.602;2022-12-24T16:06:57;9.70;99.90
66328;DHT22;53133;52.862;6.602;2022-12-24T16:09:52;9.70;99.90
66328;DHT22;53133;52.862;6.602;2022-12-24T16:12:37;9.70;99.90
66328;DHT22;53133;52.862;6.602;2022-12-24T16:15:03;9.60;99.90
66328;DHT22;53133;52.862;6.602;2022-12-24T16:17:32;9.60;99.90
66328;DHT22;53133;52.862;6.602;2022-12-24T16:20:03;9.60;99.90
66328;DHT22;53133;52.862;6.602;2022-12-24T16:22:31;9.50;99.90
66328;DHT22;53133;52.862;6.602;2022-12-24T16:24:58;9.50;99.90
66328;DHT22;53133;52.862;6.602;2022-12-24T16:27:24;9.50;99.90
66328;DHT22;53133;52.862;6.602;2022-12-24T16:29:50;9.50;99.90
66328;DHT22;53133;52.862;6.602;2022-12-24T16:32:28;9.40;99.90
66328;DHT22;53133;52.862;6.602;2022-12-24T16:34:55;9.40;99.90
66328;DHT22;53133;52.862;6.602;2022-12-24T16:37:20;9.30;99.90
66328;DHT22;53133;52.862;6.602;2022-12-24T16:39:46;9.30;99.90
66328;DHT22;53133;52.862;6.602;2022-12-24T16:42:12;9.30;99.90
66328;DHT22;53133;52.862;6.602;2022-12-24T16:44:56;9.30;99.90
66328;DHT22;53133;52.862;6.602;2022-12-24T16:47:26;9.30;99.90
66328;DHT22;53133;52.862;6.602;2022-12-24T16:49:53;9.20;99.90
66328;DHT22;53133;52.862;6.602;2022-12-24T16:52:29;9.20;99.90
66328;DHT22;53133;52.862;6.602;2022-12-24T16:54:58;9.10;99.90
66328;DHT22;53133;52.862;6.602;2022-12-24T16:57:24;9.10;99.90
66328;DHT22;53133;52.862;6.602;2022-12-24T16:59:51;9.10;99.90
66328;DHT22;53133;52.862;6.602;2022-12-24T17:02:19;9.10;99.90
66328;DHT22;53133;52.862;6.602;2022-12-24T17:04:45;9.00;99.90
66328;DHT22;53133;52.862;6.602;2022-12-24T17:07:13;9.00;99.90
66328;DHT22;53133;52.862;6.602;2022-12-24T17:09:39;9.00;99.90
66328;DHT22;53133;52.862;6.602;2022-12-24T17:12:05;8.90;99.90
66328;DHT22;53133;52.862;6.602;2022-12-24T17:14:31;8.90;99.90
66328;DHT22;53133;52.862;6.602;2022-12-24T17:16:56;8.90;99.90
66328;DHT22;53133;52.862;6.602;2022-12-24T17:19:22;8.80;99.90
66328;DHT22;53133;52.862;6.602;2022-12-24T17:21:48;8.80;99.90
66328;DHT22;53133;52.862;6.602;2022-12-24T17:24:13;8.70;99.90
66328;DHT22;53133;52.862;6.602;2022-12-24T17:26:39;8.70;99.90
66328;DHT22;53133;52.862;6.602;2022-12-24T17:29:05;8.70;99.90
66328;DHT22;53133;52.862;6.602;2022-12-24T17:31:31;8.60;99.90
66328;DHT22;53133;52.862;6.602;2022-12-24T17:33:57;8.60;99.90
66328;DHT22;53133;52.862;6.602;2022-12-24T17:36:23;8.50;99.90
66328;DHT22;53133;52.862;6.602;2022-12-24T17:38:49;8.50;99.90
66328;DHT22;53133;52.862;6.602;2022-12-24T17:41:17;8.50;99.90
66328;DHT22;53133;52.862;6.602;2022-12-24T17:43:43;8.40;99.90
66328;DHT22;53133;52.862;6.602;2022-12-24T17:46:11;8.40;99.90
66328;DHT22;53133;52.862;6.602;2022-12-24T17:48:37;8.40;99.90
66328;DHT22;53133;52.862;6.602;2022-12-24T17:51:08;8.30;99.90
66328;DHT22;53133;52.862;6.602;2022-12-24T17:53:38;8.30;99.90
66328;DHT22;53133;52.862;6.602;2022-12-24T17:56:05;8.20;99.90